sensor_id;sensor_type;location;lat;lon;timestamp;P1;durP1;ratioP1;P2;durP2;ratioP2
54805;SDS011;62866;55.776;37.496;2022-09-13T00:01:45;6.25;;;3.47;;
54805;SDS011;62866;55.776;37.496;2022-09-13T00:04:11;10.10;;;3.70;;
54805;SDS011;62866;55.776;37.496;2022-09-13T00:06:36;5.70;;;3.38;;
54805;SDS011;62866;55.776;37.496;2022-09-13T00:09:02;4.53;;;2.03;;
54805;SDS011;62866;55.776;37.496;2022-09-13T00:11:28;6.18;;;3.20;;
54805;SDS011;62866;55.776;37.496;2022-09-13T00:13:55;3.58;;;2.30;;
54805;SDS011;62866;55.776;37.496;2022-09-13T00:16:23;5.07;;;3.00;;
54805;SDS011;62866;55.776;37.496;2022-09-13T00:18:50;4.25;;;2.13;;
54805;SDS011;62866;55.776;37.496;2022-09-13T00:21:18;3.47;;;2.20;;
54805;SDS011;62866;55.776;37.496;2022-09-13T00:23:46;4.97;;;2.90;;
54805;SDS011;62866;55.776;37.496;2022-09-13T00:26:14;5.65;;;3.67;;
54805;SDS011;62866;55.776;37.496;2022-09-13T00:28:41;4.85;;;2.80;;
54805;SDS011;62866;55.776;37.496;2022-09-13T00:31:09;6.78;;;2.97;;
54805;SDS011;62866;55.776;37.496;2022-09-13T00:33:35;3.70;;;2.38;;
54805;SDS011;62866;55.776;37.496;2022-09-13T00:36:07;5.18;;;3.20;;
54805;SDS011;62866;55.776;37.496;2022-09-13T00:38:35;4.80;;;2.37;;
54805;SDS011;62866;55.776;37.496;2022-09-13T00:41:02;2.33;;;1.55;;
54805;SDS011;62866;55.776;37.496;2022-09-13T00:48:55;3.92;;;2.35;;
54805;SDS011;62866;55.776;37.496;2022-09-13T00:51:25;3.97;;;1.95;;
54805;SDS011;62866;55.776;37.496;2022-09-13T00:53:52;6.78;;;3.30;;
54805;SDS011;62866;55.776;37.496;2022-09-13T00:56:27;3.05;;;1.70;;
54805;SDS011;62866;55.776;37.496;2022-09-13T00:59:12;4.33;;;2.43;;
54805;SDS011;62866;55.776;37.496;2022-09-13T01:01:44;6.63;;;3.40;;
54805;SDS011;62866;55.776;37.496;2022-09-13T01:04:13;4.97;;;2.95;;
54805;SDS011;62866;55.776;37.496;2022-09-13T01:06:42;6.63;;;3.55;;
54805;SDS011;62866;55.776;37.496;2022-09-13T01:09:09;6.97;;;4.05;;
54805;SDS011;62866;55.776;37.496;2022-09-13T01:11:49;7.05;;;3.90;;
54805;SDS011;62866;55.776;37.496;2022-09-13T01:14:28;6.78;;;4.00;;
54805;SDS011;62866;55.776;37.496;2022-09-13T01:16:56;6.93;;;3.47;;
54805;SDS011;62866;55.776;37.496;2022-09-13T01:19:21;3.65;;;2.00;;
54805;SDS011;62866;55.776;37.496;2022-09-13T01:39:06;6.22;;;2.85;;
54805;SDS011;62866;55.776;37.496;2022-09-13T01:44:46;6.10;;;3.85;;
54805;SDS011;62866;55.776;37.496;2022-09-13T01:49:58;7.15;;;3.75;;
54805;SDS011;62866;55.776;37.496;2022-09-13T01:55:54;5.72;;;2.75;;
54805;SDS011;62866;55.776;37.496;2022-09-13T01:58:27;4.75;;;3.35;;
54805;SDS011;62866;55.776;37.496;2022-09-13T02:01:35;9.00;;;3.95;;
54805;SDS011;62866;55.776;37.496;2022-09-13T02:04:06;5.70;;;3.28;;
54805;SDS011;62866;55.776;37.496;2022-09-13T02:06:51;7.20;;;3.65;;
54805;SDS011;62866;55.776;37.496;2022-09-13T02:09:25;7.78;;;3.70;;
54805;SDS011;62866;55.776;37.496;2022-09-13T02:11:59;5.03;;;3.08;;
54805;SDS011;62866;55.776;37.496;2022-09-13T02:14:31;3.17;;;2.00;;
54805;SDS011;62866;55.776;37.496;2022-09-13T02:17:03;5.88;;;2.92;;
54805;SDS011;62866;55.776;37.496;2022-09-13T02:22:31;5.97;;;3.80;;
54805;SDS011;62866;55.776;37.496;2022-09-13T02:25:01;5.22;;;2.40;;
54805;SDS011;62866;55.776;37.496;2022-09-13T02:27:32;7.22;;;3.53;;
54805;SDS011;62866;55.776;37.496;2022-09-13T02:30:06;1.58;;;1.08;;
54805;SDS011;62866;55.776;37.496;2022-09-13T02:35:13;6.18;;;3.47;;
54805;SDS011;62866;55.776;37.496;2022-09-13T02:37:45;3.83;;;1.92;;
54805;SDS011;62866;55.776;37.496;2022-09-13T02:40:17;4.80;;;2.92;;
54805;SDS011;62866;55.776;37.496;2022-09-13T02:42:58;8.02;;;5.05;;
54805;SDS011;62866;55.776;37.496;2022-09-13T02:45:40;5.15;;;3.22;;
54805;SDS011;62866;55.776;37.496;2022-09-13T02:48:24;7.85;;;3.20;;
54805;SDS011;62866;55.776;37.496;2022-09-13T02:51:06;7.50;;;3.80;;
54805;SDS011;62866;55.776;37.496;2022-09-13T02:53:52;7.80;;;3.70;;
54805;SDS011;62866;55.776;37.496;2022-09-13T03:01:27;6.40;;;3.78;;
54805;SDS011;62866;55.776;37.496;2022-09-13T03:03:53;5.10;;;3.55;;
54805;SDS011;62866;55.776;37.496;2022-09-13T03:06:22;9.68;;;3.97;;
54805;SDS011;62866;55.776;37.496;2022-09-13T03:08:49;7.88;;;3.50;;
54805;SDS011;62866;55.776;37.496;2022-09-13T03:14:19;7.78;;;3.55;;
54805;SDS011;62866;55.776;37.496;2022-09-13T03:17:14;4.80;;;2.90;;
54805;SDS011;62866;55.776;37.496;2022-09-13T03:25:07;5.15;;;2.92;;
54805;SDS011;62866;55.776;37.496;2022-09-13T03:27:50;7.53;;;3.17;;
54805;SDS011;62866;55.776;37.496;2022-09-13T03:30:25;8.20;;;3.33;;
54805;SDS011;62866;55.776;37.496;2022-09-13T03:33:05;7.18;;;3.65;;
54805;SDS011;62866;55.776;37.496;2022-09-13T03:40:49;8.07;;;4.15;;
54805;SDS011;62866;55.776;37.496;2022-09-13T03:46:22;6.55;;;2.85;;
54805;SDS011;62866;55.776;37.496;2022-09-13T03:48:48;4.60;;;2.75;;
54805;SDS011;62866;55.776;37.496;2022-09-13T03:51:15;7.00;;;3.05;;
54805;SDS011;62866;55.776;37.496;2022-09-13T03:53:42;8.30;;;3.63;;
54805;SDS011;62866;55.776;37.496;2022-09-13T03:56:16;7.10;;;3.72;;
54805;SDS011;62866;55.776;37.496;2022-09-13T03:58:44;5.18;;;3.38;;
54805;SDS011;62866;55.776;37.496;2022-09-13T04:01:14;4.57;;;3.45;;
54805;SDS011;62866;55.776;37.496;2022-09-13T04:03:43;6.78;;;3.72;;
54805;SDS011;62866;55.776;37.496;2022-09-13T04:06:09;8.85;;;4.03;;
54805;SDS011;62866;55.776;37.496;2022-09-13T04:08:34;7.60;;;3.92;;
54805;SDS011;62866;55.776;37.496;2022-09-13T04:11:00;5.60;;;3.50;;
54805;SDS011;62866;55.776;37.496;2022-09-13T04:13:25;9.82;;;3.97;;
54805;SDS011;62866;55.776;37.496;2022-09-13T04:15:52;4.05;;;1.92;;
54805;SDS011;62866;55.776;37.496;2022-09-13T04:18:18;9.13;;;4.72;;
54805;SDS011;62866;55.776;37.496;2022-09-13T04:20:44;8.65;;;3.83;;
54805;SDS011;62866;55.776;37.496;2022-09-13T04:23:21;6.78;;;3.10;;
54805;SDS011;62866;55.776;37.496;2022-09-13T04:25:47;6.90;;;3.20;;
54805;SDS011;62866;55.776;37.496;2022-09-13T04:28:13;9.38;;;4.45;;
54805;SDS011;62866;55.776;37.496;2022-09-13T04:30:42;4.13;;;2.45;;
54805;SDS011;62866;55.776;37.496;2022-09-13T04:33:09;9.50;;;4.38;;
54805;SDS011;62866;55.776;37.496;2022-09-13T04:35:34;6.57;;;3.22;;
54805;SDS011;62866;55.776;37.496;2022-09-13T04:38:00;10.02;;;4.97;;
54805;SDS011;62866;55.776;37.496;2022-09-13T04:40:25;7.65;;;3.58;;
54805;SDS011;62866;55.776;37.496;2022-09-13T04:42:51;7.47;;;4.30;;
54805;SDS011;62866;55.776;37.496;2022-09-13T04:45:16;8.07;;;4.05;;
54805;SDS011;62866;55.776;37.496;2022-09-13T04:47:42;5.13;;;2.58;;
54805;SDS011;62866;55.776;37.496;2022-09-13T04:50:07;6.85;;;3.90;;
54805;SDS011;62866;55.776;37.496;2022-09-13T04:52:34;5.63;;;3.60;;
54805;SDS011;62866;55.776;37.496;2022-09-13T04:55:00;7.38;;;4.30;;
54805;SDS011;62866;55.776;37.496;2022-09-13T04:57:28;8.40;;;3.85;;
54805;SDS011;62866;55.776;37.496;2022-09-13T04:59:54;7.93;;;4.10;;
54805;SDS011;62866;55.776;37.496;2022-09-13T05:02:20;7.28;;;4.35;;
54805;SDS011;62866;55.776;37.496;2022-09-13T05:04:45;7.60;;;4.07;;
54805;SDS011;62866;55.776;37.496;2022-09-13T05:07:11;8.85;;;4.68;;
54805;SDS011;62866;55.776;37.496;2022-09-13T05:09:36;7.47;;;4.18;;
54805;SDS011;62866;55.776;37.496;2022-09-13T05:12:02;9.13;;;5.22;;
54805;SDS011;62866;55.776;37.496;2022-09-13T05:14:28;10.45;;;5.05;;
54805;SDS011;62866;55.776;37.496;2022-09-13T05:16:53;8.60;;;4.18;;
54805;SDS011;62866;55.776;37.496;2022-09-13T05:19:19;12.82;;;4.57;;
54805;SDS011;62866;55.776;37.496;2022-09-13T05:21:45;5.75;;;3.30;;
54805;SDS011;62866;55.776;37.496;2022-09-13T05:24:10;8.60;;;4.65;;
54805;SDS011;62866;55.776;37.496;2022-09-13T05:26:36;8.02;;;3.97;;
54805;SDS011;62866;55.776;37.496;2022-09-13T05:29:02;5.88;;;3.30;;
54805;SDS011;62866;55.776;37.496;2022-09-13T05:31:32;7.75;;;4.35;;
54805;SDS011;62866;55.776;37.496;2022-09-13T05:34:04;7.53;;;4.50;;
54805;SDS011;62866;55.776;37.496;2022-09-13T05:36:31;9.85;;;5.00;;
54805;SDS011;62866;55.776;37.496;2022-09-13T05:38:57;7.80;;;4.63;;
54805;SDS011;62866;55.776;37.496;2022-09-13T05:41:23;10.70;;;5.00;;
54805;SDS011;62866;55.776;37.496;2022-09-13T05:43:48;6.60;;;4.00;;
54805;SDS011;62866;55.776;37.496;2022-09-13T05:46:17;5.38;;;2.80;;
54805;SDS011;62866;55.776;37.496;2022-09-13T05:48:44;9.23;;;4.97;;
54805;SDS011;62866;55.776;37.496;2022-09-13T05:51:14;8.27;;;4.55;;
54805;SDS011;62866;55.776;37.496;2022-09-13T05:53:47;5.38;;;2.83;;
54805;SDS011;62866;55.776;37.496;2022-09-13T05:56:21;9.48;;;4.78;;
54805;SDS011;62866;55.776;37.496;2022-09-13T05:58:48;7.47;;;3.90;;
54805;SDS011;62866;55.776;37.496;2022-09-13T06:01:16;8.15;;;4.75;;
54805;SDS011;62866;55.776;37.496;2022-09-13T06:03:46;7.72;;;3.72;;
54805;SDS011;62866;55.776;37.496;2022-09-13T06:06:13;9.57;;;4.47;;
54805;SDS011;62866;55.776;37.496;2022-09-13T06:08:39;6.40;;;3.30;;
54805;SDS011;62866;55.776;37.496;2022-09-13T06:11:06;11.48;;;4.63;;
54805;SDS011;62866;55.776;37.496;2022-09-13T06:13:33;6.03;;;3.22;;
54805;SDS011;62866;55.776;37.496;2022-09-13T06:15:59;5.20;;;3.15;;
54805;SDS011;62866;55.776;37.496;2022-09-13T06:18:26;6.97;;;4.07;;
54805;SDS011;62866;55.776;37.496;2022-09-13T06:20:59;7.75;;;4.57;;
54805;SDS011;62866;55.776;37.496;2022-09-13T06:23:26;6.80;;;3.95;;
54805;SDS011;62866;55.776;37.496;2022-09-13T06:26:09;8.77;;;5.00;;
54805;SDS011;62866;55.776;37.496;2022-09-13T06:28:37;12.15;;;5.85;;
54805;SDS011;62866;55.776;37.496;2022-09-13T06:31:10;8.57;;;5.13;;
54805;SDS011;62866;55.776;37.496;2022-09-13T06:33:38;7.30;;;3.78;;
54805;SDS011;62866;55.776;37.496;2022-09-13T06:36:06;11.65;;;5.07;;
54805;SDS011;62866;55.776;37.496;2022-09-13T06:38:33;5.60;;;3.30;;
54805;SDS011;62866;55.776;37.496;2022-09-13T06:41:03;8.00;;;5.03;;
54805;SDS011;62866;55.776;37.496;2022-09-13T06:43:36;9.18;;;3.38;;
54805;SDS011;62866;55.776;37.496;2022-09-13T06:46:03;7.60;;;4.00;;
54805;SDS011;62866;55.776;37.496;2022-09-13T06:48:30;7.25;;;3.60;;
54805;SDS011;62866;55.776;37.496;2022-09-13T06:51:00;8.80;;;4.15;;
54805;SDS011;62866;55.776;37.496;2022-09-13T06:53:27;7.80;;;4.38;;
54805;SDS011;62866;55.776;37.496;2022-09-13T06:56:27;5.88;;;3.53;;
54805;SDS011;62866;55.776;37.496;2022-09-13T06:58:47;7.88;;;3.35;;
54805;SDS011;62866;55.776;37.496;2022-09-13T07:03:49;6.93;;;4.60;;
54805;SDS011;62866;55.776;37.496;2022-09-13T07:06:21;9.05;;;4.97;;
54805;SDS011;62866;55.776;37.496;2022-09-13T07:08:49;7.15;;;3.92;;
54805;SDS011;62866;55.776;37.496;2022-09-13T07:11:17;6.63;;;3.10;;
54805;SDS011;62866;55.776;37.496;2022-09-13T07:13:48;7.53;;;4.47;;
54805;SDS011;62866;55.776;37.496;2022-09-13T07:16:14;5.65;;;2.95;;
54805;SDS011;62866;55.776;37.496;2022-09-13T07:18:40;10.95;;;4.47;;
54805;SDS011;62866;55.776;37.496;2022-09-13T07:21:07;6.28;;;3.85;;
54805;SDS011;62866;55.776;37.496;2022-09-13T07:23:35;8.00;;;4.28;;
54805;SDS011;62866;55.776;37.496;2022-09-13T07:26:02;9.45;;;4.32;;
54805;SDS011;62866;55.776;37.496;2022-09-13T07:28:39;10.68;;;3.60;;
54805;SDS011;62866;55.776;37.496;2022-09-13T07:33:39;8.57;;;4.22;;
54805;SDS011;62866;55.776;37.496;2022-09-13T07:36:07;12.20;;;4.32;;
54805;SDS011;62866;55.776;37.496;2022-09-13T07:38:36;5.03;;;2.85;;
54805;SDS011;62866;55.776;37.496;2022-09-13T07:41:07;8.13;;;3.47;;
54805;SDS011;62866;55.776;37.496;2022-09-13T07:43:36;7.30;;;4.03;;
54805;SDS011;62866;55.776;37.496;2022-09-13T07:46:03;8.65;;;4.43;;
54805;SDS011;62866;55.776;37.496;2022-09-13T07:48:30;2.53;;;1.92;;
54805;SDS011;62866;55.776;37.496;2022-09-13T07:50:59;9.63;;;3.92;;
54805;SDS011;62866;55.776;37.496;2022-09-13T07:53:29;6.03;;;2.75;;
54805;SDS011;62866;55.776;37.496;2022-09-13T07:56:03;6.65;;;3.28;;
54805;SDS011;62866;55.776;37.496;2022-09-13T07:58:33;1.38;;;1.25;;
54805;SDS011;62866;55.776;37.496;2022-09-13T08:01:06;6.22;;;3.72;;
54805;SDS011;62866;55.776;37.496;2022-09-13T08:03:32;5.93;;;3.30;;
54805;SDS011;62866;55.776;37.496;2022-09-13T08:05:59;5.30;;;2.38;;
54805;SDS011;62866;55.776;37.496;2022-09-13T08:08:26;5.63;;;2.78;;
54805;SDS011;62866;55.776;37.496;2022-09-13T08:10:52;6.90;;;3.38;;
54805;SDS011;62866;55.776;37.496;2022-09-13T08:13:18;3.53;;;1.77;;
54805;SDS011;62866;55.776;37.496;2022-09-13T08:15:44;5.65;;;2.42;;
54805;SDS011;62866;55.776;37.496;2022-09-13T08:18:09;4.70;;;2.55;;
54805;SDS011;62866;55.776;37.496;2022-09-13T08:20:38;4.53;;;2.67;;
54805;SDS011;62866;55.776;37.496;2022-09-13T08:23:04;4.57;;;3.72;;
54805;SDS011;62866;55.776;37.496;2022-09-13T08:25:34;3.80;;;2.67;;
54805;SDS011;62866;55.776;37.496;2022-09-13T08:28:04;4.68;;;1.88;;
54805;SDS011;62866;55.776;37.496;2022-09-13T08:30:34;3.92;;;2.88;;
54805;SDS011;62866;55.776;37.496;2022-09-13T08:33:03;5.07;;;2.20;;
54805;SDS011;62866;55.776;37.496;2022-09-13T08:35:30;4.78;;;2.80;;
54805;SDS011;62866;55.776;37.496;2022-09-13T08:37:56;5.50;;;2.72;;
54805;SDS011;62866;55.776;37.496;2022-09-13T08:40:23;6.22;;;2.75;;
54805;SDS011;62866;55.776;37.496;2022-09-13T08:43:00;4.88;;;2.40;;
54805;SDS011;62866;55.776;37.496;2022-09-13T08:45:29;4.15;;;2.72;;
54805;SDS011;62866;55.776;37.496;2022-09-13T08:47:56;2.65;;;2.13;;
54805;SDS011;62866;55.776;37.496;2022-09-13T08:50:26;3.05;;;2.55;;
54805;SDS011;62866;55.776;37.496;2022-09-13T08:55:41;6.82;;;2.30;;
54805;SDS011;62866;55.776;37.496;2022-09-13T08:58:40;3.17;;;2.03;;
54805;SDS011;62866;55.776;37.496;2022-09-13T09:06:58;4.18;;;3.15;;
54805;SDS011;62866;55.776;37.496;2022-09-13T09:09:58;2.72;;;2.10;;
54805;SDS011;62866;55.776;37.496;2022-09-13T09:12:40;4.00;;;2.72;;
54805;SDS011;62866;55.776;37.496;2022-09-13T09:25:42;4.65;;;2.20;;
54805;SDS011;62866;55.776;37.496;2022-09-13T09:28:09;4.80;;;2.10;;
54805;SDS011;62866;55.776;37.496;2022-09-13T09:31:00;5.32;;;1.60;;
54805;SDS011;62866;55.776;37.496;2022-09-13T09:38:45;5.88;;;1.77;;
54805;SDS011;62866;55.776;37.496;2022-09-13T09:44:13;1.30;;;0.70;;
54805;SDS011;62866;55.776;37.496;2022-09-13T09:47:22;4.35;;;1.55;;
54805;SDS011;62866;55.776;37.496;2022-09-13T09:53:11;3.65;;;2.05;;
54805;SDS011;62866;55.776;37.496;2022-09-13T09:58:13;2.83;;;1.53;;
54805;SDS011;62866;55.776;37.496;2022-09-13T10:01:18;1.90;;;0.95;;
54805;SDS011;62866;55.776;37.496;2022-09-13T10:04:36;5.22;;;1.77;;
54805;SDS011;62866;55.776;37.496;2022-09-13T10:06:38;2.95;;;1.55;;
54805;SDS011;62866;55.776;37.496;2022-09-13T10:09:05;3.42;;;1.27;;
54805;SDS011;62866;55.776;37.496;2022-09-13T10:17:43;6.25;;;2.50;;
54805;SDS011;62866;55.776;37.496;2022-09-13T10:22:28;9.07;;;1.98;;
54805;SDS011;62866;55.776;37.496;2022-09-13T10:27:48;2.90;;;1.58;;
54805;SDS011;62866;55.776;37.496;2022-09-13T10:32:57;2.95;;;1.42;;
54805;SDS011;62866;55.776;37.496;2022-09-13T10:35:23;4.10;;;1.30;;
54805;SDS011;62866;55.776;37.496;2022-09-13T10:37:49;2.67;;;1.60;;
54805;SDS011;62866;55.776;37.496;2022-09-13T10:40:29;2.63;;;1.25;;
54805;SDS011;62866;55.776;37.496;2022-09-13T10:42:58;2.55;;;1.08;;
54805;SDS011;62866;55.776;37.496;2022-09-13T10:45:28;2.00;;;1.20;;
54805;SDS011;62866;55.776;37.496;2022-09-13T10:48:09;3.08;;;1.70;;
54805;SDS011;62866;55.776;37.496;2022-09-13T10:50:39;3.97;;;1.48;;
54805;SDS011;62866;55.776;37.496;2022-09-13T10:53:25;1.60;;;1.48;;
54805;SDS011;62866;55.776;37.496;2022-09-13T10:55:55;2.65;;;1.50;;
54805;SDS011;62866;55.776;37.496;2022-09-13T10:58:21;1.45;;;1.15;;
54805;SDS011;62866;55.776;37.496;2022-09-13T11:00:56;2.67;;;1.50;;
54805;SDS011;62866;55.776;37.496;2022-09-13T11:06:28;1.88;;;0.80;;
54805;SDS011;62866;55.776;37.496;2022-09-13T11:09:18;1.83;;;1.05;;
54805;SDS011;62866;55.776;37.496;2022-09-13T11:12:09;1.40;;;0.80;;
54805;SDS011;62866;55.776;37.496;2022-09-13T11:28:45;12.15;;;1.73;;
54805;SDS011;62866;55.776;37.496;2022-09-13T11:42:24;3.75;;;1.98;;
54805;SDS011;62866;55.776;37.496;2022-09-13T11:50:33;1.85;;;1.35;;
54805;SDS011;62866;55.776;37.496;2022-09-13T11:53:16;2.20;;;1.23;;
54805;SDS011;62866;55.776;37.496;2022-09-13T11:55:46;4.25;;;1.55;;
54805;SDS011;62866;55.776;37.496;2022-09-13T11:58:20;2.53;;;1.50;;
54805;SDS011;62866;55.776;37.496;2022-09-13T12:03:24;1.40;;;1.27;;
54805;SDS011;62866;55.776;37.496;2022-09-13T12:05:57;2.08;;;1.25;;
54805;SDS011;62866;55.776;37.496;2022-09-13T12:11:07;4.45;;;1.85;;
54805;SDS011;62866;55.776;37.496;2022-09-13T12:13:41;1.35;;;0.90;;
54805;SDS011;62866;55.776;37.496;2022-09-13T12:16:21;1.98;;;1.60;;
54805;SDS011;62866;55.776;37.496;2022-09-13T12:18:52;2.08;;;1.00;;
54805;SDS011;62866;55.776;37.496;2022-09-13T12:21:23;5.63;;;1.42;;
54805;SDS011;62866;55.776;37.496;2022-09-13T12:26:42;2.67;;;1.73;;
54805;SDS011;62866;55.776;37.496;2022-09-13T12:29:13;4.88;;;1.42;;
54805;SDS011;62866;55.776;37.496;2022-09-13T12:31:43;3.40;;;1.80;;
54805;SDS011;62866;55.776;37.496;2022-09-13T12:34:12;7.50;;;1.38;;
54805;SDS011;62866;55.776;37.496;2022-09-13T12:55:56;2.40;;;1.35;;
54805;SDS011;62866;55.776;37.496;2022-09-13T13:01:17;2.20;;;1.13;;
54805;SDS011;62866;55.776;37.496;2022-09-13T13:08:56;1.25;;;0.90;;
54805;SDS011;62866;55.776;37.496;2022-09-13T13:11:24;3.17;;;1.15;;
54805;SDS011;62866;55.776;37.496;2022-09-13T13:16:29;2.85;;;1.48;;
54805;SDS011;62866;55.776;37.496;2022-09-13T13:18:58;1.00;;;0.60;;
54805;SDS011;62866;55.776;37.496;2022-09-13T13:21:33;1.65;;;0.95;;
54805;SDS011;62866;55.776;37.496;2022-09-13T13:34:28;2.78;;;1.40;;
54805;SDS011;62866;55.776;37.496;2022-09-13T13:37:03;2.33;;;1.30;;
54805;SDS011;62866;55.776;37.496;2022-09-13T13:39:33;2.90;;;1.55;;
54805;SDS011;62866;55.776;37.496;2022-09-13T13:57:51;1.88;;;1.00;;
54805;SDS011;62866;55.776;37.496;2022-09-13T14:00:25;1.73;;;1.17;;
54805;SDS011;62866;55.776;37.496;2022-09-13T14:19:48;2.05;;;1.25;;
54805;SDS011;62866;55.776;37.496;2022-09-13T14:22:24;1.38;;;1.00;;
54805;SDS011;62866;55.776;37.496;2022-09-13T14:24:53;6.72;;;1.60;;
54805;SDS011;62866;55.776;37.496;2022-09-13T14:30:01;1.65;;;0.82;;
54805;SDS011;62866;55.776;37.496;2022-09-13T14:32:31;3.10;;;1.58;;
54805;SDS011;62866;55.776;37.496;2022-09-13T14:35:18;3.55;;;1.10;;
54805;SDS011;62866;55.776;37.496;2022-09-13T14:37:51;6.60;;;1.98;;
54805;SDS011;62866;55.776;37.496;2022-09-13T14:40:18;3.17;;;1.67;;
54805;SDS011;62866;55.776;37.496;2022-09-13T14:42:50;3.78;;;1.40;;
54805;SDS011;62866;55.776;37.496;2022-09-13T14:45:28;3.08;;;1.60;;
54805;SDS011;62866;55.776;37.496;2022-09-13T14:50:39;3.67;;;1.48;;
54805;SDS011;62866;55.776;37.496;2022-09-13T14:53:15;1.75;;;1.52;;
54805;SDS011;62866;55.776;37.496;2022-09-13T14:55:48;6.07;;;1.42;;
54805;SDS011;62866;55.776;37.496;2022-09-13T14:58:19;2.70;;;1.50;;
54805;SDS011;62866;55.776;37.496;2022-09-13T15:03:43;3.13;;;1.30;;
54805;SDS011;62866;55.776;37.496;2022-09-13T15:06:22;2.90;;;1.52;;
54805;SDS011;62866;55.776;37.496;2022-09-13T15:08:50;3.42;;;1.50;;
54805;SDS011;62866;55.776;37.496;2022-09-13T15:11:30;1.73;;;1.20;;
54805;SDS011;62866;55.776;37.496;2022-09-13T15:14:02;2.92;;;1.60;;
54805;SDS011;62866;55.776;37.496;2022-09-13T15:16:58;3.20;;;1.40;;
54805;SDS011;62866;55.776;37.496;2022-09-13T15:19:38;3.97;;;1.67;;
54805;SDS011;62866;55.776;37.496;2022-09-13T15:27:17;3.22;;;1.55;;
54805;SDS011;62866;55.776;37.496;2022-09-13T15:30:18;1.75;;;1.35;;
54805;SDS011;62866;55.776;37.496;2022-09-13T15:32:46;3.42;;;1.70;;
54805;SDS011;62866;55.776;37.496;2022-09-13T15:35:22;2.03;;;1.67;;
54805;SDS011;62866;55.776;37.496;2022-09-13T15:37:59;2.42;;;1.60;;
54805;SDS011;62866;55.776;37.496;2022-09-13T15:40:27;2.57;;;1.53;;
54805;SDS011;62866;55.776;37.496;2022-09-13T15:42:54;2.47;;;1.40;;
54805;SDS011;62866;55.776;37.496;2022-09-13T15:45:20;2.33;;;1.60;;
54805;SDS011;62866;55.776;37.496;2022-09-13T15:47:47;1.80;;;1.40;;
54805;SDS011;62866;55.776;37.496;2022-09-13T15:50:18;3.22;;;1.80;;
54805;SDS011;62866;55.776;37.496;2022-09-13T15:52:51;2.00;;;1.80;;
54805;SDS011;62866;55.776;37.496;2022-09-13T15:55:18;6.22;;;2.72;;
54805;SDS011;62866;55.776;37.496;2022-09-13T15:57:45;3.58;;;1.70;;
54805;SDS011;62866;55.776;37.496;2022-09-13T16:00:18;1.90;;;1.55;;
54805;SDS011;62866;55.776;37.496;2022-09-13T16:02:46;2.35;;;1.58;;
54805;SDS011;62866;55.776;37.496;2022-09-13T16:05:11;0.90;;;0.85;;
54805;SDS011;62866;55.776;37.496;2022-09-13T16:07:38;3.78;;;2.10;;
54805;SDS011;62866;55.776;37.496;2022-09-13T16:10:20;4.03;;;1.75;;
54805;SDS011;62866;55.776;37.496;2022-09-13T16:12:47;2.53;;;1.50;;
54805;SDS011;62866;55.776;37.496;2022-09-13T16:15:12;3.88;;;1.65;;
54805;SDS011;62866;55.776;37.496;2022-09-13T16:17:39;3.72;;;1.42;;
54805;SDS011;62866;55.776;37.496;2022-09-13T16:20:05;2.38;;;1.35;;
54805;SDS011;62866;55.776;37.496;2022-09-13T16:22:34;2.50;;;1.90;;
54805;SDS011;62866;55.776;37.496;2022-09-13T16:25:00;2.20;;;1.23;;
54805;SDS011;62866;55.776;37.496;2022-09-13T16:27:26;2.58;;;1.65;;
54805;SDS011;62866;55.776;37.496;2022-09-13T16:29:52;2.35;;;1.45;;
54805;SDS011;62866;55.776;37.496;2022-09-13T16:32:19;2.22;;;1.42;;
54805;SDS011;62866;55.776;37.496;2022-09-13T16:34:45;3.13;;;1.92;;
54805;SDS011;62866;55.776;37.496;2022-09-13T16:37:15;2.38;;;1.27;;
54805;SDS011;62866;55.776;37.496;2022-09-13T16:39:43;5.70;;;2.10;;
54805;SDS011;62866;55.776;37.496;2022-09-13T16:42:11;2.50;;;1.65;;
54805;SDS011;62866;55.776;37.496;2022-09-13T16:44:37;2.92;;;1.40;;
54805;SDS011;62866;55.776;37.496;2022-09-13T16:47:03;8.25;;;3.60;;
54805;SDS011;62866;55.776;37.496;2022-09-13T16:49:28;3.50;;;2.00;;
54805;SDS011;62866;55.776;37.496;2022-09-13T16:51:54;4.00;;;2.20;;
54805;SDS011;62866;55.776;37.496;2022-09-13T16:54:23;6.30;;;1.80;;
54805;SDS011;62866;55.776;37.496;2022-09-13T16:56:50;3.88;;;1.90;;
54805;SDS011;62866;55.776;37.496;2022-09-13T16:59:16;2.03;;;1.48;;
54805;SDS011;62866;55.776;37.496;2022-09-13T17:01:41;2.95;;;1.50;;
54805;SDS011;62866;55.776;37.496;2022-09-13T17:04:07;4.50;;;2.17;;
54805;SDS011;62866;55.776;37.496;2022-09-13T17:06:35;3.63;;;1.83;;
54805;SDS011;62866;55.776;37.496;2022-09-13T17:09:02;4.15;;;2.30;;
54805;SDS011;62866;55.776;37.496;2022-09-13T17:11:30;3.13;;;2.08;;
54805;SDS011;62866;55.776;37.496;2022-09-13T17:13:58;3.60;;;1.80;;
54805;SDS011;62866;55.776;37.496;2022-09-13T17:18:55;3.63;;;2.00;;
54805;SDS011;62866;55.776;37.496;2022-09-13T17:21:22;4.32;;;2.10;;
54805;SDS011;62866;55.776;37.496;2022-09-13T17:23:48;6.43;;;2.15;;
54805;SDS011;62866;55.776;37.496;2022-09-13T17:26:14;1.83;;;1.27;;
54805;SDS011;62866;55.776;37.496;2022-09-13T17:28:40;3.20;;;1.77;;
54805;SDS011;62866;55.776;37.496;2022-09-13T17:31:05;3.03;;;1.90;;
54805;SDS011;62866;55.776;37.496;2022-09-13T17:33:31;2.83;;;1.75;;
54805;SDS011;62866;55.776;37.496;2022-09-13T17:36:00;2.83;;;2.10;;
54805;SDS011;62866;55.776;37.496;2022-09-13T17:38:28;1.27;;;0.88;;
54805;SDS011;62866;55.776;37.496;2022-09-13T17:40:57;2.58;;;1.70;;
54805;SDS011;62866;55.776;37.496;2022-09-13T17:43:24;2.90;;;1.25;;
54805;SDS011;62866;55.776;37.496;2022-09-13T17:45:50;2.38;;;1.83;;
54805;SDS011;62866;55.776;37.496;2022-09-13T17:48:15;3.50;;;1.90;;
54805;SDS011;62866;55.776;37.496;2022-09-13T17:50:41;3.83;;;2.30;;
54805;SDS011;62866;55.776;37.496;2022-09-13T17:53:06;6.32;;;2.25;;
54805;SDS011;62866;55.776;37.496;2022-09-13T17:55:32;5.57;;;2.72;;
54805;SDS011;62866;55.776;37.496;2022-09-13T17:57:57;2.60;;;1.40;;
54805;SDS011;62866;55.776;37.496;2022-09-13T18:00:23;3.05;;;2.03;;
54805;SDS011;62866;55.776;37.496;2022-09-13T18:02:48;2.35;;;1.27;;
54805;SDS011;62866;55.776;37.496;2022-09-13T18:05:14;2.05;;;1.25;;
54805;SDS011;62866;55.776;37.496;2022-09-13T18:07:39;2.40;;;2.20;;
54805;SDS011;62866;55.776;37.496;2022-09-13T18:10:05;4.55;;;2.20;;
54805;SDS011;62866;55.776;37.496;2022-09-13T18:12:31;6.97;;;2.47;;
54805;SDS011;62866;55.776;37.496;2022-09-13T18:14:57;2.92;;;2.28;;
54805;SDS011;62866;55.776;37.496;2022-09-13T18:17:23;2.70;;;1.73;;
54805;SDS011;62866;55.776;37.496;2022-09-13T18:19:48;5.97;;;2.10;;
54805;SDS011;62866;55.776;37.496;2022-09-13T18:22:14;7.75;;;3.05;;
54805;SDS011;62866;55.776;37.496;2022-09-13T18:24:39;2.22;;;1.55;;
54805;SDS011;62866;55.776;37.496;2022-09-13T18:27:05;2.88;;;1.50;;
54805;SDS011;62866;55.776;37.496;2022-09-13T18:29:31;5.18;;;2.75;;
54805;SDS011;62866;55.776;37.496;2022-09-13T18:31:57;4.50;;;3.03;;
54805;SDS011;62866;55.776;37.496;2022-09-13T18:34:22;5.28;;;1.95;;
54805;SDS011;62866;55.776;37.496;2022-09-13T18:36:49;4.22;;;2.40;;
54805;SDS011;62866;55.776;37.496;2022-09-13T18:39:18;4.32;;;2.40;;
54805;SDS011;62866;55.776;37.496;2022-09-13T18:41:45;4.22;;;2.10;;
54805;SDS011;62866;55.776;37.496;2022-09-13T18:44:12;3.08;;;2.08;;
54805;SDS011;62866;55.776;37.496;2022-09-13T18:46:39;2.47;;;1.88;;
54805;SDS011;62866;55.776;37.496;2022-09-13T18:49:06;3.70;;;2.22;;
54805;SDS011;62866;55.776;37.496;2022-09-13T18:51:33;3.42;;;2.63;;
54805;SDS011;62866;55.776;37.496;2022-09-13T18:54:00;4.18;;;2.00;;